| time (UTC) | temp F | wind direction | speed knots | gust knots | rain 1hr in | rain 24hr in | rain mn in | humidity % | barometer mb |
| 20260502163048 | 55 | 261 | 0.0 | 2.6 | 0.00 | 0.00 | 0.00 | 88 | 1014.3 |
| 20260502161528 | 55 | 0 | 0.0 | 3.5 | 0.00 | 0.00 | 0.00 | 89 | 1014.6 |
| 20260502151534 | 57 | 235 | 3.5 | 7.0 | 0.00 | 0.00 | 0.00 | 80 | 1015.5 |
| 20260502123030 | 60 | 205 | 4.3 | 9.6 | 0.00 | 0.00 | 0.00 | 72 | 1016.5 |
| 20260502121530 | 61 | 155 | 5.2 | 11.3 | 0.00 | 0.00 | 0.00 | 71 | 1016.5 |
| 20260502114530 | 61 | 233 | 6.1 | 9.6 | 0.00 | 0.00 | 0.00 | 68 | 1016.5 |
| 20260502113029 | 61 | 149 | 5.2 | 8.7 | 0.00 | 0.00 | 0.00 | 68 | 1016.5 |
| 20260502111529 | 61 | 140 | 4.3 | 7.8 | 0.00 | 0.00 | 0.00 | 67 | 1016.8 |
| 20260502110032 | 61 | 186 | 3.5 | 6.1 | 0.00 | 0.00 | 0.00 | 67 | 1016.9 |
| 20260502104528 | 61 | 160 | 3.5 | 7.0 | 0.00 | 0.00 | 0.00 | 69 | 1017.0 |
| 20260502103027 | 60 | 202 | 3.5 | 7.8 | 0.00 | 0.00 | 0.00 | 70 | 1016.9 |
| 20260502101530 | 60 | 179 | 4.3 | 7.8 | 0.00 | 0.00 | 0.00 | 70 | 1017.1 |
| 20260502091530 | 61 | 165 | 3.5 | 11.3 | 0.00 | 0.00 | 0.00 | 70 | 1017.3 |
| 20260502071530 | 59 | 210 | 4.3 | 8.7 | 0.00 | 0.00 | 0.00 | 74 | 1017.5 |
| 20260502070039 | 58 | 162 | 3.5 | 9.6 | 0.00 | 0.00 | 0.00 | 76 | 1017.5 |
| 20260502064538 | 58 | 158 | 2.6 | 9.6 | 0.00 | 0.00 | 0.00 | 76 | 1017.5 |
| 20260502063030 | 57 | 160 | 5.2 | 7.8 | 0.00 | 0.00 | 0.00 | 77 | 1017.6 |
| 20260502061529 | 56 | 161 | 3.5 | 7.0 | 0.00 | 0.00 | 0.00 | 79 | 1017.7 |
| 20260502060031 | 56 | 159 | 3.5 | 8.7 | 0.00 | 0.00 | 0.00 | 79 | 1017.7 |
| 20260502054528 | 56 | 150 | 3.5 | 8.7 | 0.00 | 0.00 | 0.00 | 79 | 1017.9 |
| 20260502053029 | 55 | 170 | 3.5 | 7.0 | 0.00 | 0.00 | 0.00 | 80 | 1017.8 |
| 20260502051530 | 55 | 83 | 3.5 | 7.0 | 0.00 | 0.00 | 0.00 | 80 | 1017.8 |
| 20260502050034 | 55 | 176 | 2.6 | 7.0 | 0.00 | 0.00 | 0.00 | 80 | 1017.9 |
| 20260502044529 | 55 | 168 | 2.6 | 6.1 | 0.00 | 0.00 | 0.00 | 80 | 1017.8 |
| 20260502043030 | 54 | 135 | 0.9 | 5.2 | 0.00 | 0.00 | 0.00 | 79 | 1017.8 |
| 20260502041534 | 55 | 157 | 2.6 | 5.2 | 0.00 | 0.00 | 0.00 | 79 | 1018.0 |
| 20260502040027 | 55 | 155 | 3.5 | 6.1 | 0.00 | 0.00 | 0.00 | 79 | 1018.1 |
| 20260502034536 | 55 | 156 | 3.5 | 5.2 | 0.00 | 0.00 | 0.00 | 78 | 1018.2 |
| 20260502033031 | 55 | 150 | 3.5 | 9.6 | 0.00 | 0.00 | 0.00 | 77 | 1018.3 |
| 20260502031530 | 55 | 143 | 3.5 | 7.8 | 0.00 | 0.00 | 0.00 | 77 | 1018.5 |
| 20260502030028 | 56 | 243 | 3.5 | 7.8 | 0.00 | 0.00 | 0.00 | 76 | 1018.7 |
| 20260502024533 | 56 | 180 | 2.6 | 7.0 | 0.00 | 0.00 | 0.00 | 75 | 1018.7 |
| 20260502023030 | 56 | 169 | 3.5 | 8.7 | 0.00 | 0.00 | 0.00 | 74 | 1019.0 |
| 20260502021528 | 56 | 122 | 3.5 | 7.0 | 0.00 | 0.00 | 0.00 | 74 | 1019.2 |
| 20260502020028 | 56 | 141 | 2.6 | 6.1 | 0.00 | 0.00 | 0.00 | 73 | 1019.4 |
| 20260502014547 | 57 | 174 | 1.7 | 7.8 | 0.00 | 0.00 | 0.00 | 72 | 1019.5 |
| 20260502013028 | 57 | 186 | 3.5 | 8.7 | 0.00 | 0.00 | 0.00 | 72 | 1019.7 |
| 20260502011530 | 56 | 146 | 2.6 | 7.0 | 0.00 | 0.00 | 0.00 | 73 | 1020.0 |
| 20260502010029 | 56 | 146 | 2.6 | 7.0 | 0.00 | 0.00 | 0.00 | 72 | 1020.1 |
| 20260502004528 | 57 | 146 | 2.6 | 7.0 | 0.00 | 0.00 | 0.00 | 70 | 1020.2 |
| 20260502003031 | 57 | 129 | 1.7 | 7.8 | 0.00 | 0.00 | 0.00 | 70 | 1020.4 |
| 20260502001528 | 56 | 151 | 2.6 | 9.6 | 0.00 | 0.00 | 0.00 | 70 | 1020.6 |
| 20260502000044 | 54 | 161 | 2.6 | 5.2 | 0.00 | 0.00 | 0.00 | 75 | 1020.7 |
| 20260501234528 | 53 | 117 | 0.0 | 1.7 | 0.00 | 0.00 | 0.00 | 77 | 1020.9 |
| 20260501233030 | 53 | 126 | 0.0 | 1.7 | 0.00 | 0.00 | 0.00 | 76 | 1021.1 |
| 20260501231531 | 54 | 122 | 0.0 | 2.6 | 0.00 | 0.00 | 0.00 | 75 | 1021.3 |
| 20260501230030 | 54 | 140 | 0.9 | 2.6 | 0.00 | 0.00 | 0.00 | 75 | 1021.5 |
| 20260501224529 | 54 | 152 | 0.9 | 4.3 | 0.00 | 0.00 | 0.00 | 75 | 1021.5 |
| 20260501223027 | 53 | 0 | 0.0 | 1.7 | 0.00 | 0.00 | 0.00 | 75 | 1021.8 |
| 20260501221531 | 53 | 126 | 0.0 | 0.9 | 0.00 | 0.00 | 0.00 | 75 | 1021.9 |
| 20260501220029 | 53 | 0 | 0.0 | 0.9 | 0.00 | 0.00 | 0.00 | 74 | 1022.2 |
| 20260501214535 | 53 | 0 | 0.0 | 0.0 | 0.00 | 0.00 | 0.00 | 74 | 1022.3 |
| 20260501213028 | 53 | 0 | 0.0 | 0.9 | 0.00 | 0.00 | 0.00 | 74 | 1022.4 |
| 20260501211528 | 53 | 0 | 0.0 | 0.0 | 0.00 | 0.00 | 0.00 | 72 | 1022.5 |
| 20260501210028 | 53 | 0 | 0.0 | 0.0 | 0.00 | 0.00 | 0.00 | 71 | 1022.8 |
| 20260501204529 | 54 | 0 | 0.0 | 0.0 | 0.00 | 0.00 | 0.00 | 70 | 1022.9 |
| 20260501203032 | 54 | 0 | 0.0 | 0.0 | 0.00 | 0.00 | 0.00 | 70 | 1023.0 |
| 20260501201530 | 54 | 0 | 0.0 | 0.0 | 0.00 | 0.00 | 0.00 | 69 | 1022.9 |
| 20260501200028 | 55 | 0 | 0.0 | 0.0 | 0.00 | 0.00 | 0.00 | 68 | 1022.9 |
| 20260501194535 | 56 | 0 | 0.0 | 0.0 | 0.00 | 0.00 | 0.00 | 66 | 1023.0 |
| 20260501193028 | 57 | 0 | 0.0 | 0.0 | 0.00 | 0.00 | 0.00 | 63 | 1023.1 |
| 20260501191531 | 59 | 0 | 0.0 | 0.0 | 0.00 | 0.00 | 0.00 | 60 | 1023.2 |
| 20260501190028 | 61 | 0 | 0.0 | 1.7 | 0.00 | 0.00 | 0.00 | 57 | 1023.2 |
| 20260501184528 | 63 | 0 | 0.0 | 1.7 | 0.00 | 0.00 | 0.00 | 54 | 1023.2 |
| 20260501183042 | 65 | 118 | 0.0 | 2.6 | 0.00 | 0.00 | 0.00 | 51 | 1023.3 |
| 20260501181536 | 67 | 0 | 0.0 | 2.6 | 0.00 | 0.00 | 0.00 | 52 | 1023.5 |
| 20260501180035 | 68 | 144 | 0.9 | 2.6 | 0.00 | 0.00 | 0.00 | 47 | 1023.6 |
| 20260501174540 | 68 | 162 | 0.9 | 2.6 | 0.00 | 0.00 | 0.00 | 47 | 1023.7 |
| 20260501173030 | 67 | 158 | 1.7 | 4.3 | 0.00 | 0.00 | 0.00 | 47 | 1023.8 |
| 20260501171529 | 66 | 162 | 1.7 | 3.5 | 0.00 | 0.00 | 0.00 | 48 | 1024.0 |
| 20260501170028 | 66 | 236 | 1.7 | 5.2 | 0.00 | 0.00 | 0.00 | 48 | 1024.4 |
| 20260501164530 | 65 | 169 | 2.6 | 6.1 | 0.00 | 0.00 | 0.00 | 48 | 1024.5 |